sensor_id;sensor_type;location;lat;lon;timestamp;pressure;altitude;pressure_sealevel;temperature;humidity
19789;BME280;10054;59.332;18.244;2022-10-16T00:01:47;100025.39;;;12.72;100.00
19789;BME280;10054;59.332;18.244;2022-10-16T00:04:16;100017.09;;;12.71;100.00
19789;BME280;10054;59.332;18.244;2022-10-16T00:06:45;100010.47;;;12.71;100.00
19789;BME280;10054;59.332;18.244;2022-10-16T00:09:14;100000.86;;;12.70;100.00
19789;BME280;10054;59.332;18.244;2022-10-16T00:11:43;100003.02;;;12.70;100.00
19789;BME280;10054;59.332;18.244;2022-10-16T00:14:14;100003.63;;;12.68;100.00
19789;BME280;10054;59.332;18.244;2022-10-16T00:16:43;99996.29;;;12.66;100.00
19789;BME280;10054;59.332;18.244;2022-10-16T00:19:12;99996.29;;;12.66;100.00
19789;BME280;10054;59.332;18.244;2022-10-16T00:21:41;99999.91;;;12.65;100.00
19789;BME280;10054;59.332;18.244;2022-10-16T00:24:10;99996.90;;;12.64;100.00
19789;BME280;10054;59.332;18.244;2022-10-16T00:26:39;99993.41;;;12.64;100.00
19789;BME280;10054;59.332;18.244;2022-10-16T00:29:09;99996.70;;;12.62;100.00
19789;BME280;10054;59.332;18.244;2022-10-16T00:31:37;100004.64;;;12.62;100.00
19789;BME280;10054;59.332;18.244;2022-10-16T00:34:06;99999.83;;;12.61;100.00
19789;BME280;10054;59.332;18.244;2022-10-16T00:36:35;99999.83;;;12.61;100.00
19789;BME280;10054;59.332;18.244;2022-10-16T00:39:04;100001.15;;;12.61;100.00
19789;BME280;10054;59.332;18.244;2022-10-16T00:41:34;100002.11;;;12.60;100.00
19789;BME280;10054;59.332;18.244;2022-10-16T00:44:41;99999.83;;;12.61;100.00
19789;BME280;10054;59.332;18.244;2022-10-16T00:46:39;99999.11;;;12.59;100.00
19789;BME280;10054;59.332;18.244;2022-10-16T00:49:15;99999.11;;;12.59;100.00
19789;BME280;10054;59.332;18.244;2022-10-16T00:51:43;99989.00;;;12.59;100.00
19789;BME280;10054;59.332;18.244;2022-10-16T00:54:27;99991.29;;;12.58;100.00
19789;BME280;10054;59.332;18.244;2022-10-16T00:56:50;99981.67;;;12.57;100.00
19789;BME280;10054;59.332;18.244;2022-10-16T00:59:29;99981.19;;;12.57;100.00
19789;BME280;10054;59.332;18.244;2022-10-16T01:01:54;99990.45;;;12.57;100.00
19789;BME280;10054;59.332;18.244;2022-10-16T01:04:24;99983.00;;;12.57;100.00
19789;BME280;10054;59.332;18.244;2022-10-16T01:07:20;99983.48;;;12.56;100.00
19789;BME280;10054;59.332;18.244;2022-10-16T01:10:10;99981.44;;;12.54;100.00
19789;BME280;10054;59.332;18.244;2022-10-16T01:12:58;99983.24;;;12.54;100.00
19789;BME280;10054;59.332;18.244;2022-10-16T01:15:39;99985.05;;;12.53;100.00
19789;BME280;10054;59.332;18.244;2022-10-16T01:21:12;99985.66;;;12.51;100.00
19789;BME280;10054;59.332;18.244;2022-10-16T01:23:51;99979.04;;;12.51;100.00
19789;BME280;10054;59.332;18.244;2022-10-16T01:29:16;99963.77;;;12.49;100.00
19789;BME280;10054;59.332;18.244;2022-10-16T01:31:51;99970.15;;;12.46;100.00
19789;BME280;10054;59.332;18.244;2022-10-16T01:34:22;99972.44;;;12.45;100.00
19789;BME280;10054;59.332;18.244;2022-10-16T01:37:04;99975.33;;;12.42;100.00
19789;BME280;10054;59.332;18.244;2022-10-16T01:39:30;99975.33;;;12.42;100.00
19789;BME280;10054;59.332;18.244;2022-10-16T01:42:07;99971.48;;;12.41;100.00
19789;BME280;10054;59.332;18.244;2022-10-16T01:44:36;99985.19;;;12.40;100.00
19789;BME280;10054;59.332;18.244;2022-10-16T01:47:05;99984.72;;;12.35;100.00
19789;BME280;10054;59.332;18.244;2022-10-16T01:49:37;99983.87;;;12.40;100.00
19789;BME280;10054;59.332;18.244;2022-10-16T01:52:10;99996.61;;;12.41;100.00
19789;BME280;10054;59.332;18.244;2022-10-16T01:54:41;99997.94;;;12.41;100.00
19789;BME280;10054;59.332;18.244;2022-10-16T01:57:12;99999.62;;;12.42;100.00
19789;BME280;10054;59.332;18.244;2022-10-16T01:59:43;100002.27;;;12.36;100.00
19789;BME280;10054;59.332;18.244;2022-10-16T02:02:14;100002.27;;;12.36;100.00
19789;BME280;10054;59.332;18.244;2022-10-16T02:04:53;100005.39;;;12.41;100.00
19789;BME280;10054;59.332;18.244;2022-10-16T02:07:18;100005.39;;;12.41;100.00
19789;BME280;10054;59.332;18.244;2022-10-16T02:09:47;100004.91;;;12.42;100.00
19789;BME280;10054;59.332;18.244;2022-10-16T02:12:23;99998.90;;;12.40;100.00
19789;BME280;10054;59.332;18.244;2022-10-16T02:14:47;99990.12;;;12.39;100.00
19789;BME280;10054;59.332;18.244;2022-10-16T02:17:18;99984.35;;;12.40;100.00
19789;BME280;10054;59.332;18.244;2022-10-16T02:19:48;99972.70;;;12.37;100.00
19789;BME280;10054;59.332;18.244;2022-10-16T02:22:33;99972.70;;;12.37;100.00
19789;BME280;10054;59.332;18.244;2022-10-16T02:25:06;99971.85;;;12.36;100.00
19789;BME280;10054;59.332;18.244;2022-10-16T02:30:14;99968.84;;;12.35;100.00
19789;BME280;10054;59.332;18.244;2022-10-16T02:32:45;99963.68;;;12.34;100.00
19789;BME280;10054;59.332;18.244;2022-10-16T02:35:17;99961.52;;;12.33;100.00
19789;BME280;10054;59.332;18.244;2022-10-16T02:37:47;99974.74;;;12.33;100.00
19789;BME280;10054;59.332;18.244;2022-10-16T02:40:18;99977.39;;;12.33;100.00
19789;BME280;10054;59.332;18.244;2022-10-16T02:42:50;99974.74;;;12.33;100.00
19789;BME280;10054;59.332;18.244;2022-10-16T02:45:20;99975.95;;;12.29;100.00
19789;BME280;10054;59.332;18.244;2022-10-16T02:47:49;99974.27;;;12.34;100.00
19789;BME280;10054;59.332;18.244;2022-10-16T02:50:18;99968.97;;;12.34;100.00
19789;BME280;10054;59.332;18.244;2022-10-16T02:52:47;99977.75;;;12.34;100.00
19789;BME280;10054;59.332;18.244;2022-10-16T02:55:16;99974.62;;;12.35;100.00
19789;BME280;10054;59.332;18.244;2022-10-16T02:57:45;99969.33;;;12.35;100.00
19789;BME280;10054;59.332;18.244;2022-10-16T03:00:15;99966.20;;;12.35;100.00
19789;BME280;10054;59.332;18.244;2022-10-16T03:02:45;99972.34;;;12.36;100.00
19789;BME280;10054;59.332;18.244;2022-10-16T03:05:14;99967.41;;;12.37;100.00
19789;BME280;10054;59.332;18.244;2022-10-16T03:07:43;99944.44;;;12.37;100.00
19789;BME280;10054;59.332;18.244;2022-10-16T03:10:12;99944.44;;;12.37;100.00
19789;BME280;10054;59.332;18.244;2022-10-16T03:12:40;99948.41;;;12.37;100.00
19789;BME280;10054;59.332;18.244;2022-10-16T03:15:10;99955.02;;;12.37;100.00
19789;BME280;10054;59.332;18.244;2022-10-16T03:17:39;99953.70;;;12.37;100.00
19789;BME280;10054;59.332;18.244;2022-10-16T03:20:08;99927.73;;;12.37;100.00
19789;BME280;10054;59.332;18.244;2022-10-16T03:22:37;99921.84;;;12.33;100.00
19789;BME280;10054;59.332;18.244;2022-10-16T03:25:06;99917.98;;;12.37;100.00
19789;BME280;10054;59.332;18.244;2022-10-16T03:27:41;99917.98;;;12.37;100.00
19789;BME280;10054;59.332;18.244;2022-10-16T03:30:29;99910.30;;;12.34;100.00
19789;BME280;10054;59.332;18.244;2022-10-16T03:32:59;99938.67;;;12.38;100.00
19789;BME280;10054;59.332;18.244;2022-10-16T03:35:35;99951.53;;;12.37;100.00
19789;BME280;10054;59.332;18.244;2022-10-16T03:38:04;99943.59;;;12.37;100.00
19789;BME280;10054;59.332;18.244;2022-10-16T03:40:33;99946.84;;;12.35;100.00
19789;BME280;10054;59.332;18.244;2022-10-16T03:43:02;99946.84;;;12.35;100.00
19789;BME280;10054;59.332;18.244;2022-10-16T03:45:31;99941.20;;;12.34;100.00
19789;BME280;10054;59.332;18.244;2022-10-16T03:48:00;99936.39;;;12.33;100.00
19789;BME280;10054;59.332;18.244;2022-10-16T03:50:30;99934.35;;;12.31;100.00
19789;BME280;10054;59.332;18.244;2022-10-16T03:52:58;99952.51;;;12.30;100.00
19789;BME280;10054;59.332;18.244;2022-10-16T03:55:27;99937.84;;;12.26;100.00
19789;BME280;10054;59.332;18.244;2022-10-16T03:57:56;99930.75;;;12.27;100.00
19789;BME280;10054;59.332;18.244;2022-10-16T04:00:25;99930.75;;;12.27;100.00
19789;BME280;10054;59.332;18.244;2022-10-16T04:02:54;99926.42;;;12.26;100.00
19789;BME280;10054;59.332;18.244;2022-10-16T04:05:24;99929.20;;;12.24;100.00
19789;BME280;10054;59.332;18.244;2022-10-16T04:07:52;99925.35;;;12.23;100.00
19789;BME280;10054;59.332;18.244;2022-10-16T04:10:22;99917.19;;;12.20;100.00
19789;BME280;10054;59.332;18.244;2022-10-16T04:12:51;99923.20;;;12.16;100.00
19789;BME280;10054;59.332;18.244;2022-10-16T04:15:22;99923.33;;;12.15;100.00
19789;BME280;10054;59.332;18.244;2022-10-16T04:17:51;99913.23;;;12.09;100.00
19789;BME280;10054;59.332;18.244;2022-10-16T04:20:21;99920.69;;;12.09;100.00
19789;BME280;10054;59.332;18.244;2022-10-16T04:22:49;99911.55;;;12.08;100.00
19789;BME280;10054;59.332;18.244;2022-10-16T04:25:18;99903.75;;;12.01;100.00
19789;BME280;10054;59.332;18.244;2022-10-16T04:27:52;99909.77;;;11.97;100.00
19789;BME280;10054;59.332;18.244;2022-10-16T04:30:39;99909.77;;;11.97;100.00
19789;BME280;10054;59.332;18.244;2022-10-16T04:33:09;99919.97;;;12.02;100.00
19789;BME280;10054;59.332;18.244;2022-10-16T04:35:38;99926.59;;;12.02;100.00
19789;BME280;10054;59.332;18.244;2022-10-16T04:38:06;99943.89;;;12.00;100.00
19789;BME280;10054;59.332;18.244;2022-10-16T04:40:35;99941.84;;;11.93;100.00
19789;BME280;10054;59.332;18.244;2022-10-16T04:43:05;99923.38;;;11.87;100.00
19789;BME280;10054;59.332;18.244;2022-10-16T04:45:37;99928.03;;;11.95;100.00
19789;BME280;10054;59.332;18.244;2022-10-16T04:48:07;99924.55;;;11.89;100.00
19789;BME280;10054;59.332;18.244;2022-10-16T04:50:36;99924.55;;;11.89;100.00
19789;BME280;10054;59.332;18.244;2022-10-16T04:53:09;99945.81;;;11.93;100.00
19789;BME280;10054;59.332;18.244;2022-10-16T04:55:38;99934.52;;;11.91;100.00
19789;BME280;10054;59.332;18.244;2022-10-16T04:58:07;99923.50;;;11.86;100.00
19789;BME280;10054;59.332;18.244;2022-10-16T05:00:36;99921.46;;;11.83;100.00
19789;BME280;10054;59.332;18.244;2022-10-16T05:03:05;99919.42;;;11.87;100.00
19789;BME280;10054;59.332;18.244;2022-10-16T05:05:36;99929.62;;;11.86;100.00
19789;BME280;10054;59.332;18.244;2022-10-16T05:08:05;99931.76;;;11.75;100.00
19789;BME280;10054;59.332;18.244;2022-10-16T05:10:34;99931.76;;;11.75;100.00
19789;BME280;10054;59.332;18.244;2022-10-16T05:13:03;99945.97;;;11.80;100.00
19789;BME280;10054;59.332;18.244;2022-10-16T05:15:32;99944.16;;;11.80;100.00
19789;BME280;10054;59.332;18.244;2022-10-16T05:18:01;99941.01;;;11.75;100.00
19789;BME280;10054;59.332;18.244;2022-10-16T05:20:30;99941.01;;;11.75;100.00
19789;BME280;10054;59.332;18.244;2022-10-16T05:23:06;99939.00;;;11.79;100.00
19789;BME280;10054;59.332;18.244;2022-10-16T05:25:37;99929.27;;;11.79;100.00
19789;BME280;10054;59.332;18.244;2022-10-16T05:28:06;99921.94;;;11.77;100.00
19789;BME280;10054;59.332;18.244;2022-10-16T05:30:37;99933.71;;;11.79;100.00
19789;BME280;10054;59.332;18.244;2022-10-16T05:33:05;99927.59;;;11.78;100.00
19789;BME280;10054;59.332;18.244;2022-10-16T05:35:34;99928.91;;;11.78;100.00
19789;BME280;10054;59.332;18.244;2022-10-16T05:38:03;99925.75;;;11.68;100.00
19789;BME280;10054;59.332;18.244;2022-10-16T05:40:33;99925.75;;;11.68;100.00
19789;BME280;10054;59.332;18.244;2022-10-16T05:43:03;99940.77;;;11.73;100.00
19789;BME280;10054;59.332;18.244;2022-10-16T05:45:32;99940.77;;;11.73;100.00
19789;BME280;10054;59.332;18.244;2022-10-16T05:48:01;99954.02;;;11.78;100.00
19789;BME280;10054;59.332;18.244;2022-10-16T05:50:30;99940.65;;;11.74;100.00
19789;BME280;10054;59.332;18.244;2022-10-16T05:52:58;99940.65;;;11.74;100.00
19789;BME280;10054;59.332;18.244;2022-10-16T05:55:27;99935.52;;;11.78;100.00
19789;BME280;10054;59.332;18.244;2022-10-16T05:57:56;99929.59;;;11.75;100.00
19789;BME280;10054;59.332;18.244;2022-10-16T06:00:25;99937.31;;;11.83;100.00
19789;BME280;10054;59.332;18.244;2022-10-16T06:02:54;99937.31;;;11.83;100.00
19789;BME280;10054;59.332;18.244;2022-10-16T06:05:23;99940.80;;;11.84;100.00
19789;BME280;10054;59.332;18.244;2022-10-16T06:07:52;99936.95;;;11.82;100.00
19789;BME280;10054;59.332;18.244;2022-10-16T06:10:21;99937.20;;;11.85;100.00
19789;BME280;10054;59.332;18.244;2022-10-16T06:12:50;99929.39;;;11.83;100.00
19789;BME280;10054;59.332;18.244;2022-10-16T06:15:19;99922.06;;;11.81;100.00
19789;BME280;10054;59.332;18.244;2022-10-16T06:17:48;99950.50;;;11.89;100.00
19789;BME280;10054;59.332;18.244;2022-10-16T06:20:16;99958.70;;;11.86;100.00
19789;BME280;10054;59.332;18.244;2022-10-16T06:22:45;99962.99;;;11.93;100.00
19789;BME280;10054;59.332;18.244;2022-10-16T06:25:14;99962.99;;;11.93;100.00
19789;BME280;10054;59.332;18.244;2022-10-16T06:27:43;99968.40;;;11.97;100.00
19789;BME280;10054;59.332;18.244;2022-10-16T06:30:12;99968.40;;;11.97;100.00
19789;BME280;10054;59.332;18.244;2022-10-16T06:32:41;99974.65;;;12.01;100.00
19789;BME280;10054;59.332;18.244;2022-10-16T06:35:10;99974.65;;;12.01;100.00
19789;BME280;10054;59.332;18.244;2022-10-16T06:37:39;99976.20;;;12.04;100.00
19789;BME280;10054;59.332;18.244;2022-10-16T06:40:08;99977.89;;;12.05;100.00
19789;BME280;10054;59.332;18.244;2022-10-16T06:42:37;99971.16;;;12.01;100.00
19789;BME280;10054;59.332;18.244;2022-10-16T06:45:07;99978.86;;;12.04;100.00
19789;BME280;10054;59.332;18.244;2022-10-16T06:47:35;99985.10;;;12.08;100.00
19789;BME280;10054;59.332;18.244;2022-10-16T06:50:05;99974.64;;;12.12;100.00
19789;BME280;10054;59.332;18.244;2022-10-16T06:52:35;99974.64;;;12.12;100.00
19789;BME280;10054;59.332;18.244;2022-10-16T06:55:04;99981.50;;;12.15;100.00
19789;BME280;10054;59.332;18.244;2022-10-16T06:57:33;99982.57;;;12.18;100.00
19789;BME280;10054;59.332;18.244;2022-10-16T07:00:02;99982.57;;;12.18;100.00
19789;BME280;10054;59.332;18.244;2022-10-16T07:02:32;99977.52;;;12.21;100.00
19789;BME280;10054;59.332;18.244;2022-10-16T07:05:01;99980.89;;;12.23;100.00
19789;BME280;10054;59.332;18.244;2022-10-16T07:07:30;99981.84;;;12.27;100.00
19789;BME280;10054;59.332;18.244;2022-10-16T07:09:59;99981.84;;;12.27;100.00
19789;BME280;10054;59.332;18.244;2022-10-16T07:12:28;99982.92;;;12.30;100.00
19789;BME280;10054;59.332;18.244;2022-10-16T07:14:57;99986.28;;;12.32;100.00
19789;BME280;10054;59.332;18.244;2022-10-16T07:17:26;99986.16;;;12.34;100.00
19789;BME280;10054;59.332;18.244;2022-10-16T07:19:54;99989.05;;;12.36;100.00
19789;BME280;10054;59.332;18.244;2022-10-16T07:22:23;99985.08;;;12.36;100.00
19789;BME280;10054;59.332;18.244;2022-10-16T07:24:52;99987.60;;;12.38;100.00
19789;BME280;10054;59.332;18.244;2022-10-16T07:27:21;99986.64;;;12.39;100.00
19789;BME280;10054;59.332;18.244;2022-10-16T07:29:51;99982.67;;;12.39;100.00
19789;BME280;10054;59.332;18.244;2022-10-16T07:32:20;99978.45;;;12.42;100.00
19789;BME280;10054;59.332;18.244;2022-10-16T07:34:49;99983.14;;;12.44;100.00
19789;BME280;10054;59.332;18.244;2022-10-16T07:37:18;99984.95;;;12.43;100.00
19789;BME280;10054;59.332;18.244;2022-10-16T07:39:47;99991.56;;;12.43;100.00
19789;BME280;10054;59.332;18.244;2022-10-16T07:42:16;99985.66;;;12.45;100.00
19789;BME280;10054;59.332;18.244;2022-10-16T07:44:44;99989.87;;;12.48;100.00
19789;BME280;10054;59.332;18.244;2022-10-16T07:47:13;99995.88;;;12.50;100.00
19789;BME280;10054;59.332;18.244;2022-10-16T07:49:42;100000.56;;;12.52;100.00
19789;BME280;10054;59.332;18.244;2022-10-16T07:52:11;100003.45;;;12.55;100.00
19789;BME280;10054;59.332;18.244;2022-10-16T07:54:39;99996.70;;;12.56;100.00
19789;BME280;10054;59.332;18.244;2022-10-16T07:57:09;99998.27;;;12.59;100.00
19789;BME280;10054;59.332;18.244;2022-10-16T07:59:37;100001.27;;;12.60;100.00
19789;BME280;10054;59.332;18.244;2022-10-16T08:02:08;99999.83;;;12.61;100.00
19789;BME280;10054;59.332;18.244;2022-10-16T08:04:36;100000.03;;;12.64;100.00
19789;BME280;10054;59.332;18.244;2022-10-16T08:07:07;99999.34;;;12.62;100.00
19789;BME280;10054;59.332;18.244;2022-10-16T08:09:36;99998.70;;;12.64;100.00
19789;BME280;10054;59.332;18.244;2022-10-16T08:12:05;99998.45;;;12.67;100.00
19789;BME280;10054;59.332;18.244;2022-10-16T08:14:34;99994.84;;;12.68;100.00
19789;BME280;10054;59.332;18.244;2022-10-16T08:17:02;99995.33;;;12.67;100.00
19789;BME280;10054;59.332;18.244;2022-10-16T08:19:31;99997.85;;;12.69;100.00
19789;BME280;10054;59.332;18.244;2022-10-16T08:22:02;100001.45;;;12.68;100.00
19789;BME280;10054;59.332;18.244;2022-10-16T08:24:30;100008.08;;;12.68;100.00
19789;BME280;10054;59.332;18.244;2022-10-16T08:27:00;100005.43;;;12.68;100.00
19789;BME280;10054;59.332;18.244;2022-10-16T08:29:29;100016.61;;;12.71;100.00
19789;BME280;10054;59.332;18.244;2022-10-16T08:31:58;100010.35;;;12.72;100.00
19789;BME280;10054;59.332;18.244;2022-10-16T08:34:26;100009.27;;;12.75;100.00
19789;BME280;10054;59.332;18.244;2022-10-16T08:36:55;100014.66;;;12.79;100.00
19789;BME280;10054;59.332;18.244;2022-10-16T08:39:24;100017.06;;;12.82;100.00
19789;BME280;10054;59.332;18.244;2022-10-16T08:50:08;100020.05;;;12.89;100.00
19789;BME280;10054;59.332;18.244;2022-10-16T08:52:33;100021.38;;;12.89;100.00
19789;BME280;10054;59.332;18.244;2022-10-16T08:55:04;100018.61;;;12.90;100.00
19789;BME280;10054;59.332;18.244;2022-10-16T08:57:33;100025.09;;;12.92;100.00
19789;BME280;10054;59.332;18.244;2022-10-16T09:00:11;100022.94;;;12.91;100.00
19789;BME280;10054;59.332;18.244;2022-10-16T09:02:37;100022.20;;;12.95;100.00
19789;BME280;10054;59.332;18.244;2022-10-16T09:16:44;100023.56;;;13.15;100.00
19789;BME280;10054;59.332;18.244;2022-10-16T09:18:47;100022.84;;;13.25;100.00
19789;BME280;10054;59.332;18.244;2022-10-16T09:21:35;100018.59;;;13.33;100.00
19789;BME280;10054;59.332;18.244;2022-10-16T09:24:16;100021.66;;;13.38;100.00
19789;BME280;10054;59.332;18.244;2022-10-16T09:26:46;100026.93;;;13.44;100.00
19789;BME280;10054;59.332;18.244;2022-10-16T09:29:20;100021.38;;;13.47;100.00
19789;BME280;10054;59.332;18.244;2022-10-16T09:31:53;100022.44;;;13.50;100.00
19789;BME280;10054;59.332;18.244;2022-10-16T09:34:26;100018.21;;;13.53;100.00
19789;BME280;10054;59.332;18.244;2022-10-16T09:36:54;100018.56;;;13.54;100.00
19789;BME280;10054;59.332;18.244;2022-10-16T09:39:25;100020.25;;;13.55;100.00
19789;BME280;10054;59.332;18.244;2022-10-16T09:41:55;100023.96;;;13.58;100.00
19789;BME280;10054;59.332;18.244;2022-10-16T09:44:29;100029.84;;;13.62;100.00
19789;BME280;10054;59.332;18.244;2022-10-16T09:47:03;100027.42;;;13.64;100.00
19789;BME280;10054;59.332;18.244;2022-10-16T09:49:32;100023.80;;;13.65;100.00
19789;BME280;10054;59.332;18.244;2022-10-16T09:52:14;100015.36;;;13.66;100.00
19789;BME280;10054;59.332;18.244;2022-10-16T09:54:58;100019.83;;;13.65;100.00
19789;BME280;10054;59.332;18.244;2022-10-16T09:57:27;100017.53;;;13.66;100.00
19789;BME280;10054;59.332;18.244;2022-10-16T09:59:58;100019.83;;;13.65;100.00
19789;BME280;10054;59.332;18.244;2022-10-16T10:02:35;100018.62;;;13.64;100.00
19789;BME280;10054;59.332;18.244;2022-10-16T10:05:17;100021.77;;;13.63;100.00
19789;BME280;10054;59.332;18.244;2022-10-16T10:07:39;100018.50;;;13.65;100.00
19789;BME280;10054;59.332;18.244;2022-10-16T10:10:19;100016.42;;;13.69;100.00
19789;BME280;10054;59.332;18.244;2022-10-16T10:12:46;100015.45;;;13.70;100.00
19789;BME280;10054;59.332;18.244;2022-10-16T10:15:16;100020.98;;;13.72;100.00
19789;BME280;10054;59.332;18.244;2022-10-16T10:17:56;100023.64;;;13.72;100.00
19789;BME280;10054;59.332;18.244;2022-10-16T10:23:24;100021.25;;;13.69;100.00
19789;BME280;10054;59.332;18.244;2022-10-16T10:26:12;100019.92;;;13.69;100.00
19789;BME280;10054;59.332;18.244;2022-10-16T10:37:47;100003.99;;;13.90;100.00
19789;BME280;10054;59.332;18.244;2022-10-16T10:40:40;100005.84;;;13.99;100.00
19789;BME280;10054;59.332;18.244;2022-10-16T10:46:09;100013.06;;;14.12;100.00
19789;BME280;10054;59.332;18.244;2022-10-16T10:52:05;100014.84;;;14.18;100.00
19789;BME280;10054;59.332;18.244;2022-10-16T10:54:31;100019.66;;;14.18;100.00
19789;BME280;10054;59.332;18.244;2022-10-16T10:57:02;100019.52;;;14.20;100.00
19789;BME280;10054;59.332;18.244;2022-10-16T11:08:00;100018.37;;;14.28;100.00
19789;BME280;10054;59.332;18.244;2022-10-16T11:10:40;100018.02;;;14.27;100.00
19789;BME280;10054;59.332;18.244;2022-10-16T11:13:40;100006.91;;;14.27;100.00
19789;BME280;10054;59.332;18.244;2022-10-16T11:15:42;100012.80;;;14.31;100.00
19789;BME280;10054;59.332;18.244;2022-10-16T11:18:21;100014.28;;;14.39;100.00
19789;BME280;10054;59.332;18.244;2022-10-16T11:21:00;100013.86;;;14.49;100.00
19789;BME280;10054;59.332;18.244;2022-10-16T11:23:37;100006.00;;;14.63;100.00
19789;BME280;10054;59.332;18.244;2022-10-16T11:26:02;100010.49;;;14.72;100.00
19789;BME280;10054;59.332;18.244;2022-10-16T11:28:40;100010.22;;;14.75;100.00
19789;BME280;10054;59.332;18.244;2022-10-16T11:31:17;100000.09;;;14.74;100.00
19789;BME280;10054;59.332;18.244;2022-10-16T11:33:54;100005.40;;;14.74;100.00
19789;BME280;10054;59.332;18.244;2022-10-16T11:37:17;99993.66;;;14.77;100.00
19789;BME280;10054;59.332;18.244;2022-10-16T11:39:16;99991.00;;;14.77;100.00
19789;BME280;10054;59.332;18.244;2022-10-16T11:41:57;99997.64;;;14.77;100.00
19789;BME280;10054;59.332;18.244;2022-10-16T11:49:42;99984.48;;;14.66;100.00
19789;BME280;10054;59.332;18.244;2022-10-16T11:52:19;99985.04;;;14.60;100.00
19789;BME280;10054;59.332;18.244;2022-10-16T11:57:51;99986.07;;;14.53;100.00
19789;BME280;10054;59.332;18.244;2022-10-16T12:00:19;99976.14;;;14.45;100.00
19789;BME280;10054;59.332;18.244;2022-10-16T12:08:15;99975.56;;;14.27;100.00
19789;BME280;10054;59.332;18.244;2022-10-16T12:10:46;99963.55;;;14.23;100.00
19789;BME280;10054;59.332;18.244;2022-10-16T12:13:48;99960.89;;;14.23;100.00
19789;BME280;10054;59.332;18.244;2022-10-16T12:18:46;99953.50;;;14.26;100.00
19789;BME280;10054;59.332;18.244;2022-10-16T12:21:16;99951.55;;;14.28;100.00
19789;BME280;10054;59.332;18.244;2022-10-16T12:23:52;99946.81;;;14.32;100.00
19789;BME280;10054;59.332;18.244;2022-10-16T12:26:29;99954.72;;;14.37;100.00
19789;BME280;10054;59.332;18.244;2022-10-16T12:29:22;99948.89;;;14.43;100.00
19789;BME280;10054;59.332;18.244;2022-10-16T12:31:49;99942.55;;;14.50;100.00
19789;BME280;10054;59.332;18.244;2022-10-16T12:34:25;99935.23;;;14.58;100.00
19789;BME280;10054;59.332;18.244;2022-10-16T12:37:08;99931.67;;;14.63;100.00
19789;BME280;10054;59.332;18.244;2022-10-16T12:39:28;99920.22;;;14.62;100.00
19789;BME280;10054;59.332;18.244;2022-10-16T12:42:17;99915.05;;;14.61;100.00
19789;BME280;10054;59.332;18.244;2022-10-16T12:44:36;99917.77;;;14.55;100.00
19789;BME280;10054;59.332;18.244;2022-10-16T12:47:04;99912.03;;;14.50;100.00
19789;BME280;10054;59.332;18.244;2022-10-16T12:49:47;99913.91;;;14.44;100.00
19789;BME280;10054;59.332;18.244;2022-10-16T12:54:57;99920.41;;;14.45;100.00
19789;BME280;10054;59.332;18.244;2022-10-16T13:00:32;99905.55;;;14.33;100.00
19789;BME280;10054;59.332;18.244;2022-10-16T13:05:52;99907.27;;;14.19;100.00
19789;BME280;10054;59.332;18.244;2022-10-16T13:08:32;99899.23;;;14.15;100.00
19789;BME280;10054;59.332;18.244;2022-10-16T13:11:01;99896.84;;;14.12;100.00
19789;BME280;10054;59.332;18.244;2022-10-16T13:16:09;99893.52;;;14.10;100.00
19789;BME280;10054;59.332;18.244;2022-10-16T13:19:00;99881.23;;;14.09;100.00
19789;BME280;10054;59.332;18.244;2022-10-16T13:22:29;99883.89;;;14.09;100.00
19789;BME280;10054;59.332;18.244;2022-10-16T13:24:20;99883.05;;;14.08;100.00
19789;BME280;10054;59.332;18.244;2022-10-16T13:27:03;99881.86;;;14.07;100.00
19789;BME280;10054;59.332;18.244;2022-10-16T13:29:32;99876.41;;;14.08;100.00
19789;BME280;10054;59.332;18.244;2022-10-16T13:32:09;99872.13;;;14.11;100.00
19789;BME280;10054;59.332;18.244;2022-10-16T13:34:45;99857.35;;;14.19;100.00
19789;BME280;10054;59.332;18.244;2022-10-16T13:37:24;99862.80;;;14.27;100.00
19789;BME280;10054;59.332;18.244;2022-10-16T13:40:02;99866.38;;;14.31;100.00
19789;BME280;10054;59.332;18.244;2022-10-16T13:42:31;99862.75;;;14.32;100.00
19789;BME280;10054;59.332;18.244;2022-10-16T13:45:01;99862.95;;;14.35;100.00
19789;BME280;10054;59.332;18.244;2022-10-16T13:47:30;99859.54;;;14.38;100.00
19789;BME280;10054;59.332;18.244;2022-10-16T13:50:15;99854.58;;;14.39;100.00
19789;BME280;10054;59.332;18.244;2022-10-16T13:52:45;99860.13;;;14.42;100.00
19789;BME280;10054;59.332;18.244;2022-10-16T13:55:18;99858.31;;;14.42;100.00
19789;BME280;10054;59.332;18.244;2022-10-16T13:57:47;99855.55;;;14.38;100.00
19789;BME280;10054;59.332;18.244;2022-10-16T14:00:24;99845.70;;;14.35;100.00
19789;BME280;10054;59.332;18.244;2022-10-16T14:03:17;99845.15;;;14.31;100.00
19789;BME280;10054;59.332;18.244;2022-10-16T14:06:01;99839.98;;;14.30;100.00
19789;BME280;10054;59.332;18.244;2022-10-16T14:08:21;99830.83;;;14.28;100.00
19789;BME280;10054;59.332;18.244;2022-10-16T14:10:52;99836.41;;;14.25;100.00
19789;BME280;10054;59.332;18.244;2022-10-16T14:13:30;99823.84;;;14.18;100.00
19789;BME280;10054;59.332;18.244;2022-10-16T14:16:02;99836.19;;;14.13;100.00
19789;BME280;10054;59.332;18.244;2022-10-16T14:18:30;99831.11;;;14.06;100.00
19789;BME280;10054;59.332;18.244;2022-10-16T14:21:07;99835.37;;;14.03;100.00
19789;BME280;10054;59.332;18.244;2022-10-16T14:23:38;99840.24;;;13.98;100.00